Time;durP1;ratioP1;P1;durP2;ratioP2;P2;SDS_P1;SDS_P2;PMS_P1;PMS_P2;Temp;Humidity;BMP_temperature;BMP_pressure;BME280_temperature;BME280_humidity;BME280_pressure;Samples;Min_cycle;Max_cycle;Signal;HPM_P1;HPM_P2
2023/05/30 00:01:19;;;;;;;8.75;2.40;;;10.00;99.90;;;;;;5074764;28;20039;-70
2023/05/30 00:03:46;;;;;;;10.40;2.75;;;10.00;99.90;;;;;;5075194;28;20116;-70
2023/05/30 00:06:12;;;;;;;8.55;2.85;;;9.90;99.90;;;;;;5052801;28;20473;-66
2023/05/30 00:08:39;;;;;;;7.90;3.15;;;9.90;99.90;;;;;;5062292;28;20044;-67
2023/05/30 00:11:05;;;;;;;9.93;2.88;;;9.90;99.90;;;;;;5060827;28;20104;-64
2023/05/30 00:13:32;;;;;;;8.93;2.38;;;9.80;99.90;;;;;;5074069;28;20012;-59
2023/05/30 00:15:59;;;;;;;8.80;2.58;;;9.80;99.90;;;;;;5074084;28;20072;-67
2023/05/30 00:18:25;;;;;;;11.32;2.83;;;9.70;99.90;;;;;;5059716;28;20076;-62
2023/05/30 00:20:51;;;;;;;8.90;2.55;;;9.70;99.90;;;;;;5074555;28;20400;-66
2023/05/30 00:23:17;;;;;;;8.30;3.00;;;9.70;99.90;;;;;;5071634;28;20020;-65
2023/05/30 00:25:45;;;;;;;6.85;2.05;;;9.60;99.90;;;;;;5074821;28;20207;-64
2023/05/30 00:28:11;;;;;;;9.40;2.33;;;9.60;99.90;;;;;;5074505;28;20036;-60
2023/05/30 00:30:37;;;;;;;8.73;2.28;;;9.60;99.90;;;;;;5058849;28;20017;-68
2023/05/30 00:33:03;;;;;;;10.68;2.30;;;9.60;99.90;;;;;;5070557;28;20047;-65
2023/05/30 00:35:29;;;;;;;10.63;2.65;;;9.50;99.90;;;;;;5073399;28;20032;-64
2023/05/30 00:37:54;;;;;;;7.50;2.22;;;9.60;99.90;;;;;;5068439;28;20021;-64
2023/05/30 00:40:20;;;;;;;7.95;2.33;;;9.60;99.90;;;;;;5054929;28;20032;-61
2023/05/30 00:42:46;;;;;;;7.35;2.67;;;9.60;99.90;;;;;;5057315;28;20385;-62
2023/05/30 00:45:11;;;;;;;10.20;2.63;;;9.50;99.90;;;;;;5064928;28;20025;-61
2023/05/30 00:47:38;;;;;;;17.90;2.92;;;9.50;99.90;;;;;;5074014;28;20032;-60
2023/05/30 00:50:05;;;;;;;7.88;2.67;;;9.50;99.90;;;;;;5069082;28;20025;-62
2023/05/30 00:52:31;;;;;;;12.23;2.75;;;9.50;99.90;;;;;;5065231;28;20051;-65
2023/05/30 00:55:02;;;;;;;10.65;2.25;;;9.50;99.90;;;;;;5054558;28;20076;-68
2023/05/30 00:57:29;;;;;;;9.20;2.53;;;9.50;99.90;;;;;;5073353;28;20028;-67
2023/05/30 00:59:56;;;;;;;11.10;2.50;;;9.50;99.90;;;;;;5074243;28;20041;-66
2023/05/30 01:02:23;;;;;;;10.77;2.45;;;9.50;99.90;;;;;;5073444;28;20033;-70
2023/05/30 01:04:49;;;;;;;7.70;2.38;;;9.50;99.90;;;;;;5072264;28;20027;-70
2023/05/30 01:07:15;;;;;;;13.63;2.60;;;9.40;99.90;;;;;;5054465;28;20028;-70
2023/05/30 01:09:40;;;;;;;11.40;2.90;;;9.40;99.90;;;;;;5067487;28;20025;-68
2023/05/30 01:12:33;;;;;;;8.07;2.67;;;9.40;99.90;;;;;;5066270;28;20107;-67
2023/05/30 01:15:08;;;;;;;10.43;2.92;;;9.40;99.90;;;;;;5073256;28;20473;-61
2023/05/30 01:18:01;;;;;;;14.07;3.65;;;9.30;99.90;;;;;;5062255;28;20037;-66
2023/05/30 01:20:31;;;;;;;8.32;2.30;;;9.30;99.90;;;;;;5061357;28;20029;-62
2023/05/30 01:23:24;;;;;;;8.43;2.72;;;9.30;99.90;;;;;;5065649;28;20495;-65
2023/05/30 01:26:16;;;;;;;6.57;2.30;;;9.30;99.90;;;;;;5073328;28;20035;-64
2023/05/30 01:28:44;;;;;;;11.75;3.75;;;9.40;99.90;;;;;;5062078;28;20032;-64
2023/05/30 01:31:11;;;;;;;11.65;2.97;;;9.40;99.90;;;;;;5054357;28;20489;-63
2023/05/30 01:33:37;;;;;;;9.85;2.83;;;9.40;99.90;;;;;;5069627;28;20052;-64
2023/05/30 01:36:03;;;;;;;9.05;2.50;;;9.40;99.90;;;;;;5042894;28;20036;-60
2023/05/30 01:38:28;;;;;;;8.80;2.65;;;9.50;99.90;;;;;;5059973;28;20020;-70
2023/05/30 01:40:58;;;;;;;13.50;2.97;;;9.50;99.90;;;;;;5058724;28;20104;-67
2023/05/30 01:43:39;;;;;;;5.78;2.78;;;9.50;99.90;;;;;;5067295;28;20016;-64
2023/05/30 01:46:32;;;;;;;15.45;3.45;;;9.60;99.90;;;;;;5073468;28;20025;-65
2023/05/30 01:49:15;;;;;;;10.40;2.70;;;9.60;99.90;;;;;;5057765;28;20078;-66
2023/05/30 01:51:56;;;;;;;7.13;2.38;;;9.70;99.90;;;;;;5071992;28;20078;-60
2023/05/30 01:54:23;;;;;;;13.10;3.03;;;9.80;99.90;;;;;;5052778;28;20024;-61
2023/05/30 01:56:54;;;;;;;15.98;3.25;;;9.80;99.90;;;;;;5068777;28;20495;-67
2023/05/30 01:59:22;;;;;;;11.35;3.13;;;9.80;99.90;;;;;;5072724;28;20052;-63
2023/05/30 02:01:48;;;;;;;9.40;3.03;;;9.90;99.90;;;;;;5071684;28;20129;-63
2023/05/30 02:04:14;;;;;;;9.15;2.72;;;9.90;99.90;;;;;;5071785;28;20078;-65
2023/05/30 02:06:40;;;;;;;12.15;3.60;;;10.00;99.90;;;;;;5072727;28;20021;-70
2023/05/30 02:09:06;;;;;;;11.65;3.15;;;10.00;99.90;;;;;;5049155;28;20401;-71
2023/05/30 02:11:31;;;;;;;10.65;2.80;;;10.00;99.90;;;;;;5069074;28;20021;-66
2023/05/30 02:13:57;;;;;;;10.27;2.90;;;10.00;99.90;;;;;;5053325;28;20052;-61
2023/05/30 02:16:24;;;;;;;11.52;3.08;;;10.00;99.90;;;;;;5066611;28;20856;-63
2023/05/30 02:18:50;;;;;;;10.23;2.90;;;9.90;99.90;;;;;;5057622;28;20024;-66
2023/05/30 02:21:16;;;;;;;9.77;2.70;;;9.90;99.90;;;;;;5055752;28;20109;-68
2023/05/30 02:23:41;;;;;;;10.02;2.78;;;10.00;99.90;;;;;;5056876;28;20496;-61
2023/05/30 02:26:07;;;;;;;9.80;3.55;;;10.00;99.90;;;;;;5071929;28;20105;-63
2023/05/30 02:28:33;;;;;;;11.65;3.80;;;10.00;99.90;;;;;;5071657;28;20484;-60
2023/05/30 02:30:59;;;;;;;10.43;3.30;;;10.00;99.90;;;;;;5072540;28;20059;-63
2023/05/30 02:33:25;;;;;;;12.23;2.92;;;10.00;99.90;;;;;;5071819;28;20138;-64
2023/05/30 02:35:50;;;;;;;6.20;2.63;;;10.00;99.90;;;;;;5058467;28;20095;-64
2023/05/30 02:38:16;;;;;;;8.73;3.45;;;10.10;99.90;;;;;;5071607;28;20060;-64
2023/05/30 02:40:42;;;;;;;10.45;2.85;;;10.10;99.90;;;;;;5070313;28;20024;-61
2023/05/30 02:43:07;;;;;;;11.50;3.55;;;10.10;99.90;;;;;;5071920;28;20028;-60
2023/05/30 02:45:33;;;;;;;12.23;3.08;;;10.00;99.90;;;;;;5071940;28;20385;-63
2023/05/30 02:47:59;;;;;;;7.78;3.53;;;10.10;99.90;;;;;;5072344;28;20041;-66
2023/05/30 02:50:24;;;;;;;18.60;3.25;;;10.10;99.90;;;;;;5070956;28;20028;-61
2023/05/30 02:52:50;;;;;;;10.25;3.13;;;10.10;99.90;;;;;;5069832;28;20442;-60
2023/05/30 02:55:15;;;;;;;9.80;3.17;;;10.00;99.90;;;;;;5072408;28;20027;-61
2023/05/30 02:57:42;;;;;;;14.45;3.30;;;10.10;99.90;;;;;;5071541;28;20089;-63
2023/05/30 03:00:10;;;;;;;11.13;3.15;;;10.10;99.90;;;;;;5072067;28;20494;-67
2023/05/30 03:02:35;;;;;;;12.98;3.42;;;10.10;99.90;;;;;;5072022;28;20083;-65
2023/05/30 03:05:01;;;;;;;9.95;2.85;;;10.10;99.90;;;;;;5070988;28;20366;-64
2023/05/30 03:07:28;;;;;;;8.02;2.75;;;10.10;99.90;;;;;;5075352;28;20117;-63
2023/05/30 03:09:54;;;;;;;9.57;2.95;;;10.10;99.90;;;;;;5075972;28;20021;-60
2023/05/30 03:12:22;;;;;;;15.27;3.53;;;10.20;99.90;;;;;;5076218;28;20025;-63
2023/05/30 03:14:48;;;;;;;11.70;3.17;;;10.20;99.90;;;;;;5057198;28;20028;-59
2023/05/30 03:17:15;;;;;;;9.43;3.35;;;10.20;99.90;;;;;;5061982;28;20036;-63
2023/05/30 03:19:41;;;;;;;9.00;3.25;;;10.20;99.90;;;;;;5058865;28;20024;-59
2023/05/30 03:22:07;;;;;;;10.40;3.58;;;10.20;99.90;;;;;;5058443;28;20484;-59
2023/05/30 03:24:33;;;;;;;14.45;4.60;;;10.20;99.90;;;;;;5065989;28;20074;-64
2023/05/30 03:26:59;;;;;;;12.45;4.15;;;10.30;99.90;;;;;;5038641;28;20024;-60
2023/05/30 03:29:27;;;;;;;11.18;3.22;;;10.30;99.90;;;;;;5071497;28;20067;-62
2023/05/30 03:31:53;;;;;;;10.82;3.85;;;10.30;99.90;;;;;;5075125;28;20025;-67
2023/05/30 03:34:19;;;;;;;15.57;3.53;;;10.30;99.90;;;;;;5069409;28;20021;-69
2023/05/30 03:36:45;;;;;;;7.88;3.28;;;10.40;99.90;;;;;;5074782;28;20477;-70
2023/05/30 03:39:12;;;;;;;7.28;3.63;;;10.40;99.90;;;;;;5074318;28;20024;-70
2023/05/30 03:41:39;;;;;;;11.48;3.50;;;10.40;99.90;;;;;;5076103;28;20024;-65
2023/05/30 03:44:05;;;;;;;13.75;3.92;;;10.40;99.90;;;;;;5074277;28;20035;-70
2023/05/30 03:46:31;;;;;;;12.90;3.97;;;10.40;99.90;;;;;;5074585;28;20036;-68
2023/05/30 03:48:58;;;;;;;14.13;3.47;;;10.50;99.90;;;;;;5070140;28;20041;-66
2023/05/30 03:51:23;;;;;;;12.13;3.72;;;10.50;99.90;;;;;;5048946;28;20428;-67
2023/05/30 03:53:49;;;;;;;10.65;4.35;;;10.50;99.90;;;;;;5055182;28;20025;-63
2023/05/30 03:56:15;;;;;;;12.35;3.53;;;10.50;99.90;;;;;;5075053;28;20021;-68
2023/05/30 03:58:40;;;;;;;11.80;3.70;;;10.60;99.90;;;;;;5075483;28;21866;-69
2023/05/30 04:01:06;;;;;;;11.57;5.18;;;10.60;99.90;;;;;;5072521;28;20113;-64
2023/05/30 04:03:31;;;;;;;9.30;4.15;;;10.60;99.90;;;;;;5073721;28;20483;-65
2023/05/30 04:05:58;;;;;;;11.93;4.03;;;10.60;99.90;;;;;;5073145;28;20467;-66
2023/05/30 04:08:25;;;;;;;10.13;4.13;;;10.70;99.90;;;;;;5073536;28;20043;-68
2023/05/30 04:10:51;;;;;;;8.10;3.50;;;10.60;99.90;;;;;;5072339;28;20017;-69
2023/05/30 04:13:16;;;;;;;10.52;3.63;;;10.60;99.90;;;;;;5074578;28;20366;-65
2023/05/30 04:15:42;;;;;;;9.60;3.63;;;10.60;99.90;;;;;;5073593;28;20487;-66
2023/05/30 04:18:07;;;;;;;11.75;3.67;;;10.60;99.90;;;;;;5056563;28;20031;-58
2023/05/30 04:20:33;;;;;;;12.38;3.28;;;10.70;99.90;;;;;;5047314;28;20481;-66
2023/05/30 04:22:59;;;;;;;9.50;3.75;;;10.70;99.90;;;;;;5068337;28;20036;-60
2023/05/30 04:25:25;;;;;;;10.55;4.35;;;10.70;99.90;;;;;;5071045;28;20099;-61
2023/05/30 04:27:50;;;;;;;10.43;3.95;;;10.70;99.90;;;;;;5054852;28;20032;-64
2023/05/30 04:30:16;;;;;;;5.90;3.60;;;10.70;99.90;;;;;;5064122;28;20432;-63
2023/05/30 04:32:42;;;;;;;11.07;3.88;;;10.70;99.90;;;;;;5065442;28;20032;-63
2023/05/30 04:35:08;;;;;;;8.60;3.58;;;10.70;99.90;;;;;;5072310;28;20074;-64
2023/05/30 04:37:38;;;;;;;11.38;3.67;;;10.70;99.90;;;;;;5073378;28;20029;-66
2023/05/30 04:40:12;;;;;;;10.55;3.10;;;10.80;99.90;;;;;;5064978;28;20039;-63
2023/05/30 04:42:38;;;;;;;10.82;4.18;;;10.70;99.90;;;;;;5063733;28;20031;-62
2023/05/30 04:45:05;;;;;;;9.93;3.45;;;10.80;99.90;;;;;;5068624;28;20024;-61
2023/05/30 04:47:30;;;;;;;11.10;4.53;;;10.80;99.90;;;;;;5069640;28;20122;-61
2023/05/30 04:50:00;;;;;;;8.05;3.15;;;10.80;99.90;;;;;;5072576;28;20060;-61
2023/05/30 04:52:26;;;;;;;10.98;3.70;;;10.80;99.90;;;;;;5070178;28;20021;-61
2023/05/30 04:54:53;;;;;;;10.43;3.95;;;10.80;99.90;;;;;;5073216;28;20133;-63
2023/05/30 04:57:19;;;;;;;8.07;3.55;;;10.80;99.90;;;;;;5071267;28;20086;-60
2023/05/30 04:59:45;;;;;;;13.80;4.50;;;10.90;99.90;;;;;;5007555;28;1076579;-63
2023/05/30 05:02:11;;;;;;;10.18;3.80;;;10.90;99.90;;;;;;5069482;28;20047;-64
2023/05/30 05:04:37;;;;;;;7.20;3.60;;;11.00;99.90;;;;;;5059673;28;20492;-66
2023/05/30 05:07:02;;;;;;;11.00;3.78;;;11.00;99.90;;;;;;5063955;28;20504;-69
2023/05/30 05:09:28;;;;;;;7.95;3.53;;;11.10;99.90;;;;;;5055475;28;20031;-62
2023/05/30 05:11:54;;;;;;;6.72;3.60;;;11.10;99.90;;;;;;5070627;28;20424;-64
2023/05/30 05:14:20;;;;;;;6.38;3.20;;;11.20;99.90;;;;;;5073841;28;20020;-71
2023/05/30 05:16:45;;;;;;;9.98;3.65;;;11.20;99.90;;;;;;5067924;28;20123;-64
2023/05/30 05:19:11;;;;;;;9.73;3.38;;;11.20;99.90;;;;;;5055613;28;20025;-71
2023/05/30 05:21:37;;;;;;;9.68;3.88;;;11.20;99.90;;;;;;5055094;28;20454;-71
2023/05/30 05:24:03;;;;;;;8.85;2.92;;;11.20;99.90;;;;;;5051025;28;20863;-69
2023/05/30 05:26:31;;;;;;;10.20;3.55;;;11.30;99.90;;;;;;5066990;28;20025;-68
2023/05/30 05:28:57;;;;;;;6.60;3.20;;;11.30;99.90;;;;;;5054824;28;20096;-60
2023/05/30 05:31:23;;;;;;;8.00;3.47;;;11.30;99.90;;;;;;5074787;28;20028;-65
2023/05/30 05:33:49;;;;;;;8.48;3.40;;;11.40;99.90;;;;;;5055464;28;20028;-71
2023/05/30 05:36:14;;;;;;;7.28;3.25;;;11.50;99.90;;;;;;5054618;28;20152;-64
2023/05/30 05:38:40;;;;;;;10.63;3.67;;;11.50;99.90;;;;;;5072676;28;20112;-69
2023/05/30 05:41:06;;;;;;;13.32;3.63;;;11.60;99.90;;;;;;5065644;28;20507;-70
2023/05/30 05:43:31;;;;;;;8.23;3.22;;;11.70;99.90;;;;;;5053869;28;20021;-62
2023/05/30 05:45:57;;;;;;;8.40;3.70;;;11.70;99.90;;;;;;5058815;28;20020;-71
2023/05/30 05:48:22;;;;;;;7.88;3.35;;;11.80;99.90;;;;;;5059714;28;20519;-67
2023/05/30 05:50:48;;;;;;;6.15;3.40;;;11.80;99.90;;;;;;5073142;28;20047;-68
2023/05/30 05:53:14;;;;;;;6.88;3.20;;;11.80;99.90;;;;;;5069821;28;20035;-67
2023/05/30 05:55:39;;;;;;;8.20;3.20;;;11.80;99.90;;;;;;5071664;28;20070;-68
2023/05/30 05:58:05;;;;;;;10.43;3.17;;;11.80;99.90;;;;;;5055663;28;20034;-66
2023/05/30 06:00:32;;;;;;;6.97;2.80;;;11.80;99.90;;;;;;5070594;28;20048;-67
2023/05/30 06:02:57;;;;;;;6.95;3.03;;;11.80;99.90;;;;;;5062089;28;20036;-70
2023/05/30 06:05:23;;;;;;;9.98;3.70;;;11.90;99.90;;;;;;5070403;28;20354;-66
2023/05/30 06:07:48;;;;;;;6.38;3.10;;;12.00;99.90;;;;;;5066780;28;20087;-69
2023/05/30 06:10:14;;;;;;;11.32;3.47;;;12.00;99.90;;;;;;5035411;28;20021;-67
2023/05/30 06:12:40;;;;;;;11.00;4.20;;;12.10;99.90;;;;;;5053022;28;20440;-66
2023/05/30 06:15:06;;;;;;;9.48;3.97;;;12.10;99.90;;;;;;5054257;28;20140;-63
2023/05/30 06:17:32;;;;;;;6.72;3.05;;;12.20;99.90;;;;;;5071691;28;20420;-69
2023/05/30 06:19:57;;;;;;;10.40;3.17;;;12.10;99.90;;;;;;5073054;28;20493;-64
2023/05/30 06:22:23;;;;;;;9.40;3.28;;;12.20;99.90;;;;;;5072915;28;20028;-66
2023/05/30 06:24:49;;;;;;;10.18;3.03;;;12.20;99.90;;;;;;5071663;28;20024;-61
2023/05/30 06:27:15;;;;;;;10.48;3.70;;;12.20;99.90;;;;;;5052203;28;20036;-61
2023/05/30 06:29:43;;;;;;;6.72;3.67;;;12.30;99.90;;;;;;5071468;28;20033;-64
2023/05/30 06:32:09;;;;;;;9.60;3.33;;;12.40;99.90;;;;;;5073016;28;20028;-67
2023/05/30 06:34:34;;;;;;;11.80;3.60;;;12.50;99.90;;;;;;5072549;28;20029;-63
2023/05/30 06:37:00;;;;;;;10.93;4.22;;;12.60;99.90;;;;;;5072508;28;20032;-69
2023/05/30 06:39:26;;;;;;;9.52;3.75;;;12.60;99.90;;;;;;5072899;28;20021;-70
2023/05/30 06:41:52;;;;;;;11.43;3.83;;;12.60;99.90;;;;;;5071955;28;20021;-70
2023/05/30 06:44:17;;;;;;;8.65;3.60;;;12.70;99.90;;;;;;5051063;28;20039;-64
2023/05/30 06:46:43;;;;;;;10.63;3.95;;;12.70;99.90;;;;;;5072427;28;20381;-66
2023/05/30 06:49:09;;;;;;;6.45;3.35;;;12.80;99.90;;;;;;5072409;28;20158;-66
2023/05/30 06:51:36;;;;;;;9.45;4.88;;;12.90;99.90;;;;;;5072775;28;20063;-69
2023/05/30 06:54:01;;;;;;;9.98;3.70;;;13.00;99.90;;;;;;5073089;28;20030;-66
2023/05/30 06:56:27;;;;;;;13.48;4.05;;;13.00;99.90;;;;;;5056356;28;20104;-63
2023/05/30 06:58:57;;;;;;;8.32;4.57;;;13.00;99.90;;;;;;5039364;28;20067;-66
2023/05/30 07:01:22;;;;;;;8.88;3.95;;;13.00;99.90;;;;;;5043480;28;20019;-65
2023/05/30 07:03:48;;;;;;;11.07;3.67;;;13.00;99.90;;;;;;5072318;28;20024;-66
2023/05/30 07:06:13;;;;;;;10.80;4.03;;;13.10;99.90;;;;;;5072815;28;20074;-69
2023/05/30 07:08:39;;;;;;;10.27;3.83;;;13.20;99.90;;;;;;5072153;28;20029;-70
2023/05/30 07:11:06;;;;;;;11.25;4.70;;;13.40;99.90;;;;;;5069746;28;20536;-63
2023/05/30 07:13:32;;;;;;;12.43;4.20;;;13.50;99.90;;;;;;5070533;28;20028;-65
2023/05/30 07:15:57;;;;;;;8.93;3.90;;;13.60;99.90;;;;;;5052555;28;20025;-63
2023/05/30 07:18:23;;;;;;;9.10;3.70;;;13.60;99.90;;;;;;5059930;28;20028;-67
2023/05/30 07:20:48;;;;;;;13.98;4.60;;;13.80;99.90;;;;;;5047292;28;20017;-61
2023/05/30 07:23:14;;;;;;;7.45;3.70;;;13.90;99.90;;;;;;5056381;28;20373;-64
2023/05/30 07:25:40;;;;;;;8.80;3.53;;;14.00;99.90;;;;;;5058595;28;20069;-70
2023/05/30 07:28:06;;;;;;;10.25;3.55;;;14.10;99.90;;;;;;5072657;28;20419;-70
2023/05/30 07:30:31;;;;;;;11.15;3.50;;;14.30;99.90;;;;;;5048521;28;20453;-64
2023/05/30 07:32:58;;;;;;;6.88;3.72;;;14.30;99.90;;;;;;5051124;28;20035;-63
2023/05/30 07:35:23;;;;;;;8.68;3.47;;;14.40;99.90;;;;;;5069335;28;20086;-59
2023/05/30 07:37:52;;;;;;;10.10;3.53;;;14.40;99.90;;;;;;5060395;28;20461;-59
2023/05/30 07:40:18;;;;;;;7.50;3.55;;;14.50;99.90;;;;;;5072144;28;20535;-59
2023/05/30 07:42:47;;;;;;;10.20;3.22;;;14.50;99.90;;;;;;5051133;28;20032;-58
2023/05/30 07:45:13;;;;;;;9.50;3.72;;;14.60;99.90;;;;;;5068418;28;20044;-62
2023/05/30 07:47:38;;;;;;;10.95;3.85;;;14.80;99.90;;;;;;5052764;28;20063;-60
2023/05/30 07:50:05;;;;;;;7.80;4.00;;;14.90;99.90;;;;;;5062413;28;20120;-57
2023/05/30 07:52:31;;;;;;;7.75;3.65;;;15.20;99.90;;;;;;5056619;28;20083;-56
2023/05/30 07:54:56;;;;;;;6.88;3.65;;;15.40;99.90;;;;;;5072197;28;20439;-59
2023/05/30 07:57:22;;;;;;;10.60;3.80;;;15.60;99.90;;;;;;5064405;28;20120;-58
2023/05/30 07:59:48;;;;;;;8.18;3.55;;;15.80;99.90;;;;;;5075267;28;20064;-62
2023/05/30 08:02:14;;;;;;;11.73;3.10;;;16.10;99.00;;;;;;5063315;28;20032;-63
2023/05/30 08:04:40;;;;;;;10.93;4.40;;;16.20;98.60;;;;;;5061724;28;20178;-64
2023/05/30 08:07:06;;;;;;;8.13;3.28;;;16.30;97.00;;;;;;5071445;28;20358;-62
2023/05/30 08:09:31;;;;;;;9.88;4.25;;;16.40;97.50;;;;;;5066043;28;20106;-62
2023/05/30 08:11:58;;;;;;;7.50;3.75;;;16.50;97.80;;;;;;5073915;28;20052;-66
2023/05/30 08:14:24;;;;;;;9.85;3.28;;;16.70;97.40;;;;;;5054842;28;20475;-60
2023/05/30 08:16:50;;;;;;;12.52;3.75;;;16.70;96.00;;;;;;5075594;28;20100;-65
2023/05/30 08:19:16;;;;;;;13.73;4.15;;;16.60;94.80;;;;;;5073743;28;20056;-64
2023/05/30 08:21:43;;;;;;;6.50;3.75;;;16.40;94.80;;;;;;5066588;28;20028;-61
2023/05/30 08:24:11;;;;;;;8.70;2.80;;;16.20;94.60;;;;;;5059007;28;20025;-67
2023/05/30 08:26:39;;;;;;;11.73;3.47;;;15.90;95.00;;;;;;5055543;28;20017;-64
2023/05/30 08:29:06;;;;;;;8.57;3.53;;;15.70;95.60;;;;;;5060445;28;20115;-67
2023/05/30 08:31:31;;;;;;;9.00;3.35;;;15.70;95.90;;;;;;5073394;28;20021;-64
2023/05/30 08:33:57;;;;;;;10.00;3.55;;;15.50;95.50;;;;;;5054903;28;20032;-61
2023/05/30 08:36:22;;;;;;;12.13;3.55;;;15.20;95.70;;;;;;5071711;28;20024;-61
2023/05/30 08:38:54;;;;;;;12.32;3.75;;;15.00;96.40;;;;;;5068751;28;20032;-65
2023/05/30 08:41:23;;;;;;;6.70;2.88;;;14.90;96.70;;;;;;5060149;28;20147;-71
2023/05/30 08:43:50;;;;;;;12.48;3.90;;;14.90;97.20;;;;;;5071156;28;20067;-66
2023/05/30 08:46:17;;;;;;;9.98;3.53;;;14.90;97.10;;;;;;5075302;28;20028;-68
2023/05/30 08:48:44;;;;;;;8.00;3.20;;;15.00;96.80;;;;;;5066720;28;20041;-60
2023/05/30 08:51:15;;;;;;;9.20;3.72;;;15.10;96.80;;;;;;5073991;28;20033;-65
2023/05/30 08:53:51;;;;;;;11.77;4.17;;;15.10;96.60;;;;;;5055604;28;20103;-67
2023/05/30 08:56:22;;;;;;;8.18;4.15;;;15.30;96.80;;;;;;5054345;28;20473;-68
2023/05/30 08:58:50;;;;;;;8.48;4.35;;;15.50;97.20;;;;;;5065894;28;20041;-70
2023/05/30 09:01:17;;;;;;;7.78;3.83;;;15.70;96.80;;;;;;5055771;28;20031;-69
2023/05/30 09:03:44;;;;;;;10.65;3.63;;;16.00;96.00;;;;;;5059689;28;20028;-65
2023/05/30 09:06:12;;;;;;;12.73;3.70;;;16.00;95.00;;;;;;5063529;28;20036;-64
2023/05/30 09:08:41;;;;;;;10.27;4.28;;;15.90;94.90;;;;;;5072654;28;20060;-64
2023/05/30 09:11:07;;;;;;;7.75;3.65;;;15.90;94.50;;;;;;5071753;28;20048;-60
2023/05/30 09:13:34;;;;;;;9.82;3.65;;;15.80;94.80;;;;;;5065701;28;20044;-60
2023/05/30 09:16:00;;;;;;;10.40;3.40;;;15.70;94.40;;;;;;5063382;28;20125;-65
2023/05/30 09:18:29;;;;;;;7.75;3.28;;;15.60;94.70;;;;;;5074553;28;20492;-60
2023/05/30 09:20:56;;;;;;;7.43;3.63;;;15.50;94.90;;;;;;5039924;28;20021;-61
2023/05/30 09:23:22;;;;;;;6.82;3.28;;;15.30;94.80;;;;;;5063455;28;20031;-62
2023/05/30 09:25:51;;;;;;;10.18;3.70;;;15.20;94.70;;;;;;5074529;28;20100;-59
2023/05/30 09:28:25;;;;;;;7.63;3.90;;;15.30;95.50;;;;;;5074674;28;20090;-60
2023/05/30 09:31:01;;;;;;;9.70;4.55;;;15.50;95.30;;;;;;5073687;28;20021;-60
2023/05/30 09:33:43;;;;;;;8.90;3.65;;;15.70;95.10;;;;;;5074330;28;20028;-60
2023/05/30 09:36:12;;;;;;;10.63;4.00;;;15.90;95.00;;;;;;5073317;28;20039;-59
2023/05/30 09:38:38;;;;;;;13.30;3.65;;;16.00;95.10;;;;;;5053887;28;20445;-60
2023/05/30 09:41:04;;;;;;;9.23;3.78;;;16.00;94.40;;;;;;5072974;28;20028;-61
2023/05/30 09:43:34;;;;;;;9.77;3.58;;;16.10;94.30;;;;;;5071846;28;20439;-60
2023/05/30 09:46:06;;;;;;;11.57;3.85;;;16.10;93.90;;;;;;5072439;28;20023;-60
2023/05/30 09:48:32;;;;;;;10.40;3.20;;;16.00;93.40;;;;;;5072673;28;20564;-60
2023/05/30 09:51:01;;;;;;;8.35;3.17;;;16.00;94.10;;;;;;5071951;28;20033;-60
2023/05/30 09:53:32;;;;;;;11.98;3.83;;;16.10;94.00;;;;;;5060923;28;20059;-61
2023/05/30 09:56:01;;;;;;;9.07;3.08;;;16.10;93.70;;;;;;5052937;28;20070;-59
2023/05/30 09:58:27;;;;;;;7.18;3.30;;;16.20;94.10;;;;;;5072013;28;20427;-60
2023/05/30 10:00:54;;;;;;;7.22;3.35;;;16.20;93.20;;;;;;5054736;28;20040;-60
2023/05/30 10:03:21;;;;;;;7.72;3.15;;;16.10;93.40;;;;;;5071569;28;20033;-60
2023/05/30 10:05:47;;;;;;;13.30;3.85;;;16.20;93.60;;;;;;5055298;28;20025;-60
2023/05/30 10:08:13;;;;;;;8.27;3.38;;;16.20;92.90;;;;;;5053506;28;20033;-60
2023/05/30 10:10:40;;;;;;;9.25;3.17;;;16.30;93.50;;;;;;5067079;28;20070;-60
2023/05/30 10:13:06;;;;;;;8.65;3.75;;;16.30;93.30;;;;;;5068906;28;20024;-60
2023/05/30 10:15:32;;;;;;;8.05;3.25;;;16.30;93.30;;;;;;5069219;28;20726;-60
2023/05/30 10:18:07;;;;;;;6.97;3.67;;;16.30;92.90;;;;;;5065190;28;20017;-61
2023/05/30 10:20:44;;;;;;;10.35;3.88;;;16.30;92.70;;;;;;5072493;28;20021;-60
2023/05/30 10:23:12;;;;;;;9.05;3.83;;;16.40;93.20;;;;;;5053422;28;20024;-60
2023/05/30 10:25:43;;;;;;;6.88;4.00;;;16.50;92.90;;;;;;5053230;28;20025;-60
2023/05/30 10:28:15;;;;;;;10.93;3.53;;;16.50;93.10;;;;;;5034857;28;20033;-60
2023/05/30 10:30:41;;;;;;;10.02;4.45;;;16.60;92.60;;;;;;5056689;28;20021;-60
2023/05/30 10:33:09;;;;;;;10.85;4.40;;;16.60;92.80;;;;;;5073410;28;20158;-60
2023/05/30 10:35:36;;;;;;;11.95;4.15;;;16.60;93.10;;;;;;5072567;28;20025;-68
2023/05/30 10:38:06;;;;;;;11.75;4.20;;;16.70;92.50;;;;;;5073165;28;20116;-67
2023/05/30 10:40:53;;;;;;;9.85;3.50;;;16.80;92.10;;;;;;5071671;28;20178;-60
2023/05/30 10:43:47;;;;;;;12.75;4.50;;;16.90;91.40;;;;;;5070247;28;20054;-64
2023/05/30 10:46:24;;;;;;;10.00;4.22;;;16.90;91.50;;;;;;5053257;28;20029;-61
2023/05/30 10:48:53;;;;;;;10.45;4.88;;;17.00;91.90;;;;;;5067912;28;20044;-62
2023/05/30 10:51:19;;;;;;;10.48;4.28;;;17.00;90.80;;;;;;5067628;28;20018;-63
2023/05/30 10:53:46;;;;;;;12.93;4.90;;;17.00;90.90;;;;;;5059681;28;20047;-64
2023/05/30 10:56:40;;;;;;;9.13;4.25;;;17.00;91.20;;;;;;5067335;28;20021;-69
2023/05/30 10:59:18;;;;;;;11.20;4.03;;;17.00;90.60;;;;;;5071834;28;20058;-60
2023/05/30 11:02:04;;;;;;;15.65;5.15;;;17.00;90.50;;;;;;5057245;28;20037;-61
2023/05/30 11:04:32;;;;;;;8.65;4.13;;;17.00;90.90;;;;;;5034994;28;20079;-63
2023/05/30 11:06:58;;;;;;;8.05;4.63;;;17.10;91.10;;;;;;5045166;28;20021;-63
2023/05/30 11:09:26;;;;;;;10.13;4.35;;;17.10;90.80;;;;;;5059780;28;20029;-61
2023/05/30 11:12:00;;;;;;;11.65;4.35;;;17.20;90.00;;;;;;5062698;28;20023;-62
2023/05/30 11:14:37;;;;;;;8.95;3.92;;;17.10;90.30;;;;;;5061245;28;20029;-66
2023/05/30 11:17:05;;;;;;;10.50;4.45;;;17.20;91.00;;;;;;5063131;28;20021;-66
2023/05/30 11:19:43;;;;;;;10.43;5.07;;;17.30;89.90;;;;;;5036361;28;20033;-64
2023/05/30 11:22:22;;;;;;;9.38;4.22;;;17.30;90.20;;;;;;5060688;28;20063;-72
2023/05/30 11:25:17;;;;;;;10.88;3.90;;;17.30;89.80;;;;;;5051990;28;20029;-68
2023/05/30 11:28:06;;;;;;;8.25;4.28;;;17.30;88.50;;;;;;5059669;28;20036;-71
2023/05/30 11:30:33;;;;;;;7.90;3.90;;;17.30;86.70;;;;;;5075371;28;20524;-73
2023/05/30 11:32:59;;;;;;;8.20;3.38;;;17.30;87.80;;;;;;5075472;28;20025;-65
2023/05/30 11:35:28;;;;;;;7.05;3.80;;;17.30;86.50;;;;;;5057184;28;20108;-63
2023/05/30 11:37:55;;;;;;;8.68;4.35;;;17.40;87.60;;;;;;5070296;28;20635;-64
2023/05/30 11:40:24;;;;;;;9.18;4.20;;;17.50;88.50;;;;;;5056209;28;20032;-62
2023/05/30 11:42:51;;;;;;;11.48;4.18;;;17.60;89.80;;;;;;5076159;28;20473;-70
2023/05/30 11:45:17;;;;;;;8.95;3.40;;;17.70;88.50;;;;;;5075485;28;20515;-61
2023/05/30 11:47:44;;;;;;;6.60;3.70;;;17.60;88.20;;;;;;5073115;28;20033;-63
2023/05/30 11:50:10;;;;;;;8.00;3.75;;;17.70;88.10;;;;;;5055484;28;20047;-71
2023/05/30 11:52:41;;;;;;;8.65;4.15;;;17.70;88.50;;;;;;5070732;28;20028;-61
2023/05/30 11:55:07;;;;;;;8.30;3.65;;;17.90;87.80;;;;;;5056323;28;20381;-69
2023/05/30 11:57:34;;;;;;;7.10;3.90;;;17.80;87.90;;;;;;5056699;28;20354;-65
2023/05/30 12:00:00;;;;;;;13.15;4.22;;;17.80;88.00;;;;;;5058648;28;20045;-68
2023/05/30 12:02:29;;;;;;;7.45;3.97;;;17.70;87.50;;;;;;5076661;28;20120;-73
2023/05/30 12:05:02;;;;;;;10.27;4.65;;;17.70;88.10;;;;;;5064032;28;20043;-72
2023/05/30 12:07:28;;;;;;;7.30;3.75;;;17.70;87.00;;;;;;5057194;28;20115;-72
2023/05/30 12:09:54;;;;;;;12.30;4.75;;;17.70;87.40;;;;;;5072623;28;20492;-72
2023/05/30 12:12:20;;;;;;;10.15;3.80;;;17.70;87.00;;;;;;5065242;28;20370;-63
2023/05/30 12:14:47;;;;;;;8.30;3.70;;;17.80;87.10;;;;;;5067467;28;20029;-74
2023/05/30 12:17:15;;;;;;;8.88;4.40;;;17.80;88.00;;;;;;5064838;28;20104;-71
2023/05/30 12:19:49;;;;;;;7.05;3.88;;;17.80;87.90;;;;;;5065522;28;20056;-72
2023/05/30 12:22:16;;;;;;;8.32;3.40;;;17.80;89.40;;;;;;5061351;28;20020;-73
2023/05/30 12:24:42;;;;;;;7.18;3.25;;;17.90;88.80;;;;;;5065310;28;21894;-62
2023/05/30 12:27:16;;;;;;;11.05;4.55;;;17.90;90.00;;;;;;5067281;28;20024;-61
2023/05/30 12:29:42;;;;;;;7.68;3.40;;;17.90;90.40;;;;;;5058929;28;20021;-62
2023/05/30 12:32:08;;;;;;;7.13;3.47;;;18.00;90.60;;;;;;5059493;28;20112;-61
2023/05/30 12:34:43;;;;;;;9.57;3.63;;;18.00;90.80;;;;;;5061247;28;20440;-60
2023/05/30 12:37:10;;;;;;;7.72;3.60;;;18.10;91.00;;;;;;5073176;28;20095;-61
2023/05/30 12:39:44;;;;;;;5.43;2.85;;;18.20;90.40;;;;;;5074861;28;20074;-62
2023/05/30 12:42:10;;;;;;;8.93;3.60;;;18.20;90.30;;;;;;5074663;28;20115;-62
2023/05/30 12:44:47;;;;;;;7.78;3.92;;;18.30;90.90;;;;;;5073779;28;20079;-61
2023/05/30 12:47:13;;;;;;;7.90;3.97;;;18.30;91.10;;;;;;5054145;28;20314;-61